Time;durP1;ratioP1;P1;durP2;ratioP2;P2;SDS_P1;SDS_P2;PMS_P1;PMS_P2;Temp;Humidity;BMP_temperature;BMP_pressure;BME280_temperature;BME280_humidity;BME280_pressure;Samples;Min_cycle;Max_cycle;Signal;HPM_P1;HPM_P2
2022/08/31 00:04:45;;;;;;;1.70;0.45;;;;;;;-142.37;100.00;59669.53;4975927;28;20395;-70
2022/08/31 00:07:11;;;;;;;3.97;0.80;;;;;;;-142.37;100.00;59669.53;4975749;28;20039;-68
2022/08/31 00:09:36;;;;;;;4.00;0.30;;;;;;;-142.37;100.00;59669.53;4958366;28;20034;-69
2022/08/31 00:12:03;;;;;;;3.70;0.93;;;;;;;-142.37;100.00;59669.53;4975821;28;20038;-68
2022/08/31 00:14:29;;;;;;;6.53;0.50;;;;;;;-142.37;100.00;59669.53;4975633;28;20034;-68
2022/08/31 00:16:55;;;;;;;2.38;0.40;;;;;;;-142.37;100.00;59669.53;4975532;28;20035;-69
2022/08/31 00:19:21;;;;;;;2.05;0.73;;;;;;;-142.37;100.00;59669.53;4957934;28;20041;-69
2022/08/31 00:21:46;;;;;;;2.53;0.50;;;;;;;-142.37;100.00;59669.53;4975899;28;20035;-68
2022/08/31 00:24:13;;;;;;;2.78;0.30;;;;;;;-142.37;100.00;59669.53;4975579;28;20065;-67
2022/08/31 00:26:39;;;;;;;0.65;0.20;;;;;;;-142.37;100.00;59669.53;4958105;28;20037;-67
2022/08/31 00:29:05;;;;;;;1.23;0.40;;;;;;;-142.37;100.00;59669.53;4975335;28;20062;-68
2022/08/31 00:31:31;;;;;;;1.92;0.35;;;;;;;-142.37;100.00;59669.53;4975426;28;20031;-67
2022/08/31 00:33:56;;;;;;;5.70;1.08;;;;;;;-142.37;100.00;59669.53;4975350;28;20026;-67
2022/08/31 00:36:24;;;;;;;0.95;0.28;;;;;;;-142.37;100.00;59669.53;4958113;28;20333;-68
2022/08/31 00:38:50;;;;;;;2.33;0.47;;;;;;;-142.37;100.00;59669.53;4957733;28;20033;-66
2022/08/31 00:41:19;;;;;;;4.85;0.50;;;;;;;-142.37;100.00;59669.53;4975099;28;20528;-68
2022/08/31 00:43:52;;;;;;;2.47;0.32;;;;;;;-142.37;100.00;59669.53;4975146;28;20070;-68
2022/08/31 00:46:25;;;;;;;1.20;0.22;;;;;;;-142.37;100.00;59669.53;4974942;28;20050;-69
2022/08/31 00:49:00;;;;;;;2.30;0.28;;;;;;;-142.37;100.00;59669.53;4974990;28;20037;-68
2022/08/31 00:51:27;;;;;;;3.22;0.40;;;;;;;-142.37;100.00;59669.53;4957833;28;20114;-68
2022/08/31 00:53:53;;;;;;;0.93;0.22;;;;;;;-142.37;100.00;59669.53;4974887;28;20393;-68
2022/08/31 00:56:20;;;;;;;0.55;0.20;;;;;;;-142.37;100.00;59669.53;4957391;28;20031;-68
2022/08/31 00:58:47;;;;;;;1.80;0.25;;;;;;;-142.37;100.00;59669.53;4957177;28;20031;-69
2022/08/31 01:01:13;;;;;;;1.92;0.20;;;;;;;-142.37;100.00;59669.53;4974398;28;20031;-68
2022/08/31 01:03:40;;;;;;;5.07;0.50;;;;;;;-142.37;100.00;59669.53;4974060;28;20034;-68
2022/08/31 01:06:06;;;;;;;1.25;0.30;;;;;;;-142.37;100.00;59669.53;4957396;28;20038;-68
2022/08/31 01:08:32;;;;;;;2.53;0.50;;;;;;;-142.37;100.00;59669.53;4975142;28;20035;-68
2022/08/31 01:10:59;;;;;;;0.77;0.38;;;;;;;-142.37;100.00;59669.53;4956841;28;20121;-70
2022/08/31 01:13:25;;;;;;;1.88;0.30;;;;;;;-142.37;100.00;59669.53;4974394;28;20039;-69
2022/08/31 01:15:56;;;;;;;3.05;0.32;;;;;;;-142.37;100.00;59669.53;4957125;28;20314;-67
2022/08/31 01:18:24;;;;;;;2.25;0.30;;;;;;;-142.37;100.00;59669.53;4974406;28;20030;-68
2022/08/31 01:21:02;;;;;;;0.77;0.32;;;;;;;-142.37;100.00;59669.53;4974411;28;20105;-69
2022/08/31 01:23:46;;;;;;;1.98;0.63;;;;;;;-142.37;100.00;59669.53;4973140;28;20388;-68
2022/08/31 01:26:21;;;;;;;2.28;0.50;;;;;;;-142.37;100.00;59669.53;4974429;28;20038;-68
2022/08/31 01:28:49;;;;;;;2.13;0.28;;;;;;;-142.37;100.00;59669.53;4974004;28;20054;-69
2022/08/31 01:31:20;;;;;;;2.90;0.60;;;;;;;-142.37;100.00;59669.53;4956779;28;20038;-68
2022/08/31 01:33:47;;;;;;;1.60;0.40;;;;;;;-142.37;100.00;59669.53;4956858;28;20034;-69
2022/08/31 01:36:13;;;;;;;1.38;0.30;;;;;;;-142.37;100.00;59669.53;4974010;28;20045;-68
2022/08/31 01:38:38;;;;;;;0.93;0.20;;;;;;;-142.37;100.00;59669.53;4974263;28;20373;-68
2022/08/31 01:41:05;;;;;;;1.00;0.30;;;;;;;-142.37;100.00;59669.53;4973754;28;20049;-68
2022/08/31 01:43:34;;;;;;;6.80;0.85;;;;;;;-142.37;100.00;59669.53;4956733;28;20069;-69
2022/08/31 01:46:02;;;;;;;2.63;0.40;;;;;;;-142.37;100.00;59669.53;4956611;28;20425;-68
2022/08/31 01:48:28;;;;;;;0.75;0.28;;;;;;;-142.37;100.00;59669.53;4973784;28;20042;-69
2022/08/31 01:50:54;;;;;;;3.13;0.30;;;;;;;-142.37;100.00;59669.53;4974238;28;20043;-69
2022/08/31 01:53:20;;;;;;;2.78;0.60;;;;;;;-142.37;100.00;59669.53;4973867;28;20041;-69
2022/08/31 01:55:45;;;;;;;2.90;0.40;;;;;;;-142.37;100.00;59669.53;4956607;28;20031;-69
2022/08/31 01:58:12;;;;;;;1.30;0.38;;;;;;;-142.37;100.00;59669.53;4974085;28;20066;-68
2022/08/31 02:00:39;;;;;;;1.65;0.55;;;;;;;-142.37;100.00;59669.53;4956315;28;20129;-69
2022/08/31 02:03:06;;;;;;;4.57;0.38;;;;;;;-142.37;100.00;59669.53;4973715;28;20039;-70
2022/08/31 02:05:36;;;;;;;3.53;0.55;;;;;;;-142.37;100.00;59669.53;4956424;28;20066;-69
2022/08/31 02:08:05;;;;;;;3.35;0.68;;;;;;;-142.37;100.00;59669.53;4973633;28;20476;-69
2022/08/31 02:10:31;;;;;;;3.70;0.50;;;;;;;-142.37;100.00;59669.53;4956341;28;20023;-69
2022/08/31 02:12:57;;;;;;;1.77;0.30;;;;;;;-142.37;100.00;59669.53;4973142;28;20073;-70
2022/08/31 02:15:22;;;;;;;0.98;0.30;;;;;;;-142.37;100.00;59669.53;4973312;28;20038;-69
2022/08/31 02:17:48;;;;;;;1.80;0.47;;;;;;;-142.37;100.00;59669.53;4973518;28;20113;-69
2022/08/31 02:20:14;;;;;;;1.17;0.32;;;;;;;-142.37;100.00;59669.53;4956141;28;20090;-68
2022/08/31 02:22:40;;;;;;;0.40;0.40;;;;;;;-142.37;100.00;59669.53;4973329;28;20035;-69
2022/08/31 02:25:07;;;;;;;5.47;1.13;;;;;;;-142.37;100.00;59669.53;4955656;28;20370;-70
2022/08/31 02:27:35;;;;;;;2.28;0.20;;;;;;;-142.37;100.00;59669.53;4955695;28;20039;-68
2022/08/31 02:30:00;;;;;;;3.50;0.77;;;;;;;-142.37;100.00;59669.53;4973344;28;20039;-68
2022/08/31 02:32:26;;;;;;;4.35;0.43;;;;;;;-142.37;100.00;59669.53;4973358;28;20491;-68
2022/08/31 02:34:52;;;;;;;0.98;0.30;;;;;;;-142.37;100.00;59669.53;4955987;28;20495;-68
2022/08/31 02:37:17;;;;;;;3.88;1.88;;;;;;;-142.37;100.00;59669.53;4955748;28;20027;-69
2022/08/31 02:39:43;;;;;;;2.70;0.52;;;;;;;-142.37;100.00;59669.53;4955816;28;20038;-68
2022/08/31 02:42:09;;;;;;;1.48;0.50;;;;;;;-142.37;100.00;59669.53;4973204;28;20070;-69
2022/08/31 02:44:34;;;;;;;2.97;0.50;;;;;;;-142.37;100.00;59669.53;4955868;28;20058;-69
2022/08/31 02:47:00;;;;;;;0.93;0.38;;;;;;;-142.37;100.00;59669.53;4972869;28;20030;-70
2022/08/31 02:49:26;;;;;;;3.38;0.50;;;;;;;-142.37;100.00;59669.53;4955823;28;20082;-70
2022/08/31 02:51:51;;;;;;;3.47;0.52;;;;;;;-142.37;100.00;59669.53;4973235;28;20110;-69
2022/08/31 02:54:17;;;;;;;2.50;0.30;;;;;;;-142.37;100.00;59669.53;4973022;28;20500;-70
2022/08/31 02:56:43;;;;;;;1.65;0.30;;;;;;;-142.37;100.00;59669.53;4973060;28;20046;-69
2022/08/31 02:59:09;;;;;;;2.50;0.50;;;;;;;-142.37;100.00;59669.53;4972810;28;20423;-68
2022/08/31 03:01:35;;;;;;;2.47;0.52;;;;;;;-142.37;100.00;59669.53;4973044;28;20367;-68
2022/08/31 03:04:01;;;;;;;1.42;0.35;;;;;;;-142.37;100.00;59669.53;4973553;28;20058;-69
2022/08/31 03:06:28;;;;;;;2.13;0.35;;;;;;;-142.37;100.00;59669.53;4955658;28;20073;-69
2022/08/31 03:08:54;;;;;;;1.63;0.52;;;;;;;-142.37;100.00;59669.53;4955862;28;20494;-70
2022/08/31 03:11:20;;;;;;;2.08;0.57;;;;;;;-142.37;100.00;59669.53;4972726;28;20043;-70
2022/08/31 03:13:45;;;;;;;5.18;0.45;;;;;;;-142.37;100.00;59669.53;4955593;28;20031;-70
2022/08/31 03:16:13;;;;;;;4.13;0.52;;;;;;;-142.37;100.00;59669.53;4973045;28;20039;-69
2022/08/31 03:18:38;;;;;;;1.85;0.60;;;;;;;-142.37;100.00;59669.53;4955613;28;20027;-69
2022/08/31 03:21:04;;;;;;;3.03;0.82;;;;;;;-142.37;100.00;59669.53;4955263;28;20107;-69
2022/08/31 03:23:30;;;;;;;3.45;0.50;;;;;;;-142.37;100.00;59669.53;4972628;28;20085;-70
2022/08/31 03:25:55;;;;;;;2.55;0.65;;;;;;;-142.37;100.00;59669.53;4974064;28;20476;-69
2022/08/31 03:28:21;;;;;;;3.15;0.50;;;;;;;-142.37;100.00;59669.53;4976252;28;20054;-70
2022/08/31 03:30:47;;;;;;;1.88;0.40;;;;;;;-142.37;100.00;59669.53;4958920;28;20038;-69
2022/08/31 03:33:13;;;;;;;2.55;0.20;;;;;;;-142.37;100.00;59669.53;4976322;28;20121;-68
2022/08/31 03:35:42;;;;;;;1.63;0.50;;;;;;;-142.37;100.00;59669.53;4976391;28;20053;-70
2022/08/31 03:38:11;;;;;;;0.75;0.25;;;;;;;-142.37;100.00;59669.53;4976520;28;20023;-70
2022/08/31 03:40:40;;;;;;;3.60;0.50;;;;;;;-142.37;100.00;59669.53;4958782;28;20380;-69
2022/08/31 03:43:10;;;;;;;2.65;0.38;;;;;;;-142.37;100.00;59669.53;4975950;28;20030;-70
2022/08/31 03:45:41;;;;;;;0.43;0.25;;;;;;;-142.37;100.00;59669.53;4958936;28;20451;-69
2022/08/31 03:48:08;;;;;;;4.18;0.63;;;;;;;-142.37;100.00;59669.53;4976130;28;20038;-70
2022/08/31 03:50:34;;;;;;;2.50;0.93;;;;;;;-142.37;100.00;59669.53;4976240;28;20042;-71
2022/08/31 03:53:04;;;;;;;1.90;0.68;;;;;;;-142.37;100.00;59669.53;4958084;28;20026;-69
2022/08/31 03:55:37;;;;;;;1.98;0.82;;;;;;;-142.37;100.00;59669.53;4958607;28;20117;-70
2022/08/31 03:58:04;;;;;;;1.73;0.30;;;;;;;-142.37;100.00;59669.53;4976412;28;20046;-71
2022/08/31 04:00:31;;;;;;;3.70;0.45;;;;;;;-142.37;100.00;59669.53;4975939;28;20090;-69
2022/08/31 04:02:58;;;;;;;3.67;0.40;;;;;;;-142.37;100.00;59669.53;4957995;28;20078;-71
2022/08/31 04:05:26;;;;;;;2.95;0.82;;;;;;;-142.37;100.00;59669.53;4975554;28;20029;-70
2022/08/31 04:07:52;;;;;;;3.00;0.70;;;;;;;-142.37;100.00;59669.53;4958065;28;20090;-70
2022/08/31 04:10:18;;;;;;;3.53;0.50;;;;;;;-142.37;100.00;59669.53;4958185;28;20448;-71
2022/08/31 04:12:44;;;;;;;5.82;0.57;;;;;;;-142.37;100.00;59669.53;4975689;28;20126;-70
2022/08/31 04:15:11;;;;;;;6.43;0.55;;;;;;;-142.37;100.00;59669.53;4975652;28;20061;-71
2022/08/31 04:17:37;;;;;;;1.65;0.30;;;;;;;-142.37;100.00;59669.53;4957779;28;20102;-70
2022/08/31 04:20:04;;;;;;;5.97;0.52;;;;;;;-142.37;100.00;59669.53;4957613;28;20035;-70
2022/08/31 04:22:30;;;;;;;2.53;0.57;;;;;;;-142.37;100.00;59669.53;4975129;28;20027;-71
2022/08/31 04:24:55;;;;;;;1.60;0.52;;;;;;;-142.37;100.00;59669.53;4975121;28;20026;-73
2022/08/31 04:27:21;;;;;;;6.28;0.55;;;;;;;-142.37;100.00;59669.53;4957843;28;20133;-70
2022/08/31 04:29:47;;;;;;;2.47;0.60;;;;;;;-142.37;100.00;59669.53;4957540;28;20039;-70
2022/08/31 04:32:13;;;;;;;1.88;0.52;;;;;;;-142.37;100.00;59669.53;4957705;28;20061;-70
2022/08/31 04:34:38;;;;;;;3.03;0.50;;;;;;;-142.37;100.00;59669.53;4974769;28;20118;-69
2022/08/31 04:37:05;;;;;;;0.85;0.40;;;;;;;-142.37;100.00;59669.53;4974578;28;20528;-70
2022/08/31 04:39:32;;;;;;;1.80;0.57;;;;;;;-142.37;100.00;59669.53;4974920;28;20085;-71
2022/08/31 04:41:58;;;;;;;3.60;0.40;;;;;;;-142.37;100.00;59669.53;4975305;28;20023;-70
2022/08/31 04:44:25;;;;;;;2.20;0.50;;;;;;;-142.37;100.00;59669.53;4975311;28;20046;-71
2022/08/31 04:46:51;;;;;;;0.93;0.30;;;;;;;-142.37;100.00;59669.53;4975030;28;20031;-70
2022/08/31 04:49:17;;;;;;;2.45;0.50;;;;;;;-142.37;100.00;59669.53;4957007;28;20041;-69
2022/08/31 04:51:43;;;;;;;2.58;0.50;;;;;;;-142.37;100.00;59669.53;4957686;28;20109;-70
2022/08/31 04:54:11;;;;;;;1.95;0.52;;;;;;;-142.37;100.00;59669.53;4957316;28;20472;-70
2022/08/31 04:56:41;;;;;;;3.35;0.70;;;;;;;-142.37;100.00;59669.53;4974919;28;20042;-70
2022/08/31 04:59:10;;;;;;;1.65;0.63;;;;;;;-142.37;100.00;59669.53;4974602;28;20035;-70
2022/08/31 05:01:41;;;;;;;1.88;0.47;;;;;;;-142.37;100.00;59669.53;4957140;28;20089;-70
2022/08/31 05:04:07;;;;;;;2.08;0.40;;;;;;;-142.37;100.00;59669.53;4974728;28;20027;-71
2022/08/31 05:06:35;;;;;;;3.70;0.65;;;;;;;-142.37;100.00;59669.53;4974280;28;20078;-70
2022/08/31 05:09:06;;;;;;;10.05;1.08;;;;;;;-142.37;100.00;59669.53;4973682;28;20033;-71
2022/08/31 05:11:32;;;;;;;5.55;0.70;;;;;;;-142.37;100.00;59669.53;4956736;28;20471;-71
2022/08/31 05:14:01;;;;;;;2.05;0.50;;;;;;;-142.37;100.00;59669.53;4956357;28;20124;-69
2022/08/31 05:16:30;;;;;;;5.65;0.90;;;;;;;-142.37;100.00;59669.53;4956482;28;20051;-70
2022/08/31 05:18:57;;;;;;;2.15;0.60;;;;;;;-142.37;100.00;59669.53;4974032;28;20082;-72
2022/08/31 05:21:29;;;;;;;2.72;0.98;;;;;;;-142.37;100.00;59669.53;4973795;28;20504;-70
2022/08/31 05:24:00;;;;;;;1.65;0.55;;;;;;;-142.37;100.00;59669.53;4956170;28;20403;-71
2022/08/31 05:26:29;;;;;;;1.80;0.50;;;;;;;-142.37;100.00;59669.53;4973682;28;20518;-70
2022/08/31 05:28:57;;;;;;;6.22;1.13;;;;;;;-142.37;100.00;59669.53;4955529;28;20046;-70
2022/08/31 05:31:23;;;;;;;2.80;0.60;;;;;;;-142.37;100.00;59669.53;4973215;28;20488;-71
2022/08/31 05:33:50;;;;;;;4.93;1.20;;;;;;;-142.37;100.00;59669.53;4955759;28;20035;-70
2022/08/31 05:36:16;;;;;;;3.95;1.40;;;;;;;-142.37;100.00;59669.53;4973255;28;20531;-70
2022/08/31 05:38:44;;;;;;;4.10;1.25;;;;;;;-142.37;100.00;59669.53;4973986;28;20539;-70
2022/08/31 05:41:10;;;;;;;1.70;0.93;;;;;;;-142.37;100.00;59669.53;4955671;28;20040;-69
2022/08/31 05:43:37;;;;;;;2.65;1.10;;;;;;;-142.37;100.00;59669.53;4955574;28;20510;-70
2022/08/31 05:46:10;;;;;;;3.38;1.00;;;;;;;-142.37;100.00;59669.53;4973025;28;20054;-70
2022/08/31 05:48:36;;;;;;;1.33;0.88;;;;;;;-142.37;100.00;59669.53;4954569;28;20034;-71
2022/08/31 05:51:12;;;;;;;5.47;1.50;;;;;;;-142.37;100.00;59669.53;4971773;28;20142;-70
2022/08/31 05:53:37;;;;;;;4.28;1.00;;;;;;;-142.37;100.00;59669.53;4972833;28;20030;-70
2022/08/31 05:56:12;;;;;;;3.90;1.15;;;;;;;-142.37;100.00;59669.53;4955035;28;20496;-71
2022/08/31 05:58:42;;;;;;;2.80;1.25;;;;;;;-142.37;100.00;59669.53;4954566;28;20031;-71
2022/08/31 06:01:21;;;;;;;9.32;3.30;;;;;;;-142.37;100.00;59669.53;4971549;28;20046;-71
2022/08/31 06:03:47;;;;;;;3.38;1.52;;;;;;;-142.37;100.00;59669.53;4972698;28;20455;-70
2022/08/31 06:06:13;;;;;;;4.65;1.35;;;;;;;-142.37;100.00;59669.53;4971330;28;20097;-70
2022/08/31 06:08:40;;;;;;;4.65;1.42;;;;;;;-142.37;100.00;59669.53;4972274;28;20027;-72
2022/08/31 06:11:12;;;;;;;1.55;0.82;;;;;;;-142.37;100.00;59669.53;4954770;28;20031;-71
2022/08/31 06:13:39;;;;;;;2.65;1.45;;;;;;;-142.37;100.00;59669.53;4955072;28;20042;-70
2022/08/31 06:16:05;;;;;;;2.20;1.17;;;;;;;-142.37;100.00;59669.53;4955163;28;20042;-72
2022/08/31 06:18:31;;;;;;;3.45;1.13;;;;;;;-142.37;100.00;59669.53;4954094;28;20075;-70
2022/08/31 06:21:19;;;;;;;8.40;1.90;;;;;;;-142.37;100.00;59669.53;4971535;28;20117;-71
2022/08/31 06:23:49;;;;;;;6.50;1.45;;;;;;;-142.37;100.00;59669.53;4971484;28;20050;-69
2022/08/31 06:26:18;;;;;;;4.45;1.88;;;;;;;-142.37;100.00;59669.53;4954572;28;20665;-70
2022/08/31 06:28:47;;;;;;;5.57;0.90;;;;;;;-142.37;100.00;59669.53;4954070;28;20046;-70
2022/08/31 06:31:22;;;;;;;2.67;0.90;;;;;;;-142.37;100.00;59669.53;4972012;28;20539;-69
2022/08/31 06:33:49;;;;;;;6.18;1.20;;;;;;;-142.37;100.00;59669.53;4970936;28;20110;-69
2022/08/31 06:36:17;;;;;;;3.92;1.55;;;;;;;-142.37;100.00;59669.53;4953984;28;20034;-73
2022/08/31 06:38:43;;;;;;;4.43;1.20;;;;;;;-142.37;100.00;59669.53;4972277;28;20198;-71
2022/08/31 06:41:14;;;;;;;3.17;0.80;;;;;;;-142.37;100.00;59669.53;4972438;28;20407;-71
2022/08/31 06:43:40;;;;;;;4.22;1.00;;;;;;;-142.37;100.00;59669.53;4972314;28;20125;-73
2022/08/31 06:46:06;;;;;;;2.78;1.38;;;;;;;-142.37;100.00;59669.53;4972071;28;20105;-71
2022/08/31 06:48:33;;;;;;;2.83;1.30;;;;;;;-142.37;100.00;59669.53;4971967;28;20376;-70
2022/08/31 06:50:59;;;;;;;6.63;1.52;;;;;;;-142.37;100.00;59669.53;4972253;28;20117;-71
2022/08/31 06:53:25;;;;;;;4.15;1.35;;;;;;;-142.37;100.00;59669.53;4972449;28;20124;-71
2022/08/31 06:55:50;;;;;;;5.10;0.90;;;;;;;-142.37;100.00;59669.53;4954592;28;20443;-70
2022/08/31 06:58:16;;;;;;;6.75;1.20;;;;;;;-142.37;100.00;59669.53;4972090;28;20031;-69
2022/08/31 07:00:42;;;;;;;6.50;1.27;;;;;;;-142.37;100.00;59669.53;4955803;28;20034;-68
2022/08/31 07:03:23;;;;;;;3.25;1.65;;;;;;;-142.37;100.00;59669.53;4958432;28;20026;-70
2022/08/31 07:05:53;;;;;;;2.55;0.77;;;;;;;-142.37;100.00;59669.53;4959425;28;20371;-69
2022/08/31 07:08:20;;;;;;;2.22;0.80;;;;;;;-142.37;100.00;59669.53;4958801;28;20041;-71
2022/08/31 07:10:47;;;;;;;1.23;0.70;;;;;;;-142.37;100.00;59669.53;4958804;28;20380;-70
2022/08/31 07:13:13;;;;;;;4.07;1.00;;;;;;;-142.37;100.00;59669.53;4958794;28;20089;-71
2022/08/31 07:15:38;;;;;;;1.60;1.00;;;;;;;-142.37;100.00;59669.53;4975862;28;20030;-72
2022/08/31 07:18:04;;;;;;;3.67;0.85;;;;;;;-142.37;100.00;59669.53;4958517;28;20038;-70
2022/08/31 07:20:30;;;;;;;2.00;0.73;;;;;;;-142.37;100.00;59669.53;4976119;28;20074;-70
2022/08/31 07:22:56;;;;;;;1.35;0.80;;;;;;;-142.37;100.00;59669.53;4975813;28;20023;-74
2022/08/31 07:25:22;;;;;;;2.40;0.85;;;;;;;-142.37;100.00;59669.53;4975911;28;20499;-70
2022/08/31 07:27:54;;;;;;;2.58;0.80;;;;;;;-142.37;100.00;59669.53;4976380;28;20046;-68
2022/08/31 07:30:23;;;;;;;1.85;0.75;;;;;;;-142.37;100.00;59669.53;4975802;28;20027;-69
2022/08/31 07:32:50;;;;;;;0.82;0.73;;;;;;;-142.37;100.00;59669.53;4958346;28;20093;-67
2022/08/31 07:35:19;;;;;;;4.18;1.08;;;;;;;-142.37;100.00;59669.53;4975580;28;20089;-71
2022/08/31 07:43:14;;;;;;;3.45;0.73;;;;;;;-142.37;100.00;59669.53;4975753;28;20402;-70
2022/08/31 07:45:40;;;;;;;2.03;0.70;;;;;;;-142.37;100.00;59669.53;4975978;28;20069;-70
2022/08/31 07:48:06;;;;;;;1.25;0.70;;;;;;;-142.37;100.00;59669.53;4958063;28;20031;-70
2022/08/31 07:50:32;;;;;;;4.60;1.35;;;;;;;-142.37;100.00;59669.53;4975486;28;20050;-71
2022/08/31 07:52:59;;;;;;;7.18;1.75;;;;;;;-142.37;100.00;59669.53;4975110;28;20027;-69
2022/08/31 07:55:26;;;;;;;3.50;1.45;;;;;;;-142.37;100.00;59669.53;4975614;28;20077;-71
2022/08/31 07:57:54;;;;;;;0.82;0.38;;;;;;;-142.37;100.00;59669.53;4975525;28;20026;-69
2022/08/31 08:00:23;;;;;;;3.00;1.27;;;;;;;-142.37;100.00;59669.53;4957937;28;20034;-70
2022/08/31 08:02:49;;;;;;;1.15;0.32;;;;;;;-142.37;100.00;59669.53;4975660;28;20031;-69
2022/08/31 08:05:21;;;;;;;1.65;0.30;;;;;;;-142.37;100.00;59669.53;4975306;28;20035;-69
2022/08/31 08:07:52;;;;;;;1.17;0.68;;;;;;;-142.37;100.00;59669.53;4975472;28;20027;-69
2022/08/31 08:10:20;;;;;;;0.73;0.50;;;;;;;-142.37;100.00;59669.53;4958251;28;20096;-69
2022/08/31 08:12:55;;;;;;;1.00;0.40;;;;;;;-142.37;100.00;59669.53;4975029;28;20027;-69
2022/08/31 08:15:25;;;;;;;0.40;0.32;;;;;;;-142.37;100.00;59669.53;4975144;28;20096;-69
2022/08/31 08:17:51;;;;;;;0.52;0.20;;;;;;;-142.37;100.00;59669.53;4975404;28;20085;-68
2022/08/31 08:20:18;;;;;;;0.88;0.40;;;;;;;-142.37;100.00;59669.53;4974951;28;20035;-68
2022/08/31 08:22:45;;;;;;;1.73;0.50;;;;;;;-142.37;100.00;59669.53;4975234;28;20057;-68
2022/08/31 08:25:12;;;;;;;0.65;0.43;;;;;;;-142.37;100.00;59669.53;4974783;28;20064;-65
2022/08/31 08:27:38;;;;;;;0.40;0.32;;;;;;;-142.37;100.00;59669.53;4974668;28;20182;-68
2022/08/31 08:30:07;;;;;;;1.48;0.40;;;;;;;-142.37;100.00;59669.53;4957520;28;20185;-67
2022/08/31 08:32:34;;;;;;;2.03;0.65;;;;;;;-142.37;100.00;59669.53;4974950;28;20046;-67
2022/08/31 08:34:59;;;;;;;2.45;0.50;;;;;;;-142.37;100.00;59669.53;4973083;28;20027;-65
2022/08/31 08:37:26;;;;;;;0.75;0.70;;;;;;;-142.37;100.00;59669.53;4957331;28;20503;-68
2022/08/31 08:39:53;;;;;;;0.75;0.50;;;;;;;-142.37;100.00;59669.53;4957271;28;20041;-67
2022/08/31 08:42:21;;;;;;;1.05;0.32;;;;;;;-142.37;100.00;59669.53;4956476;28;20031;-66
2022/08/31 08:44:47;;;;;;;0.88;0.43;;;;;;;-142.37;100.00;59669.53;4957189;28;20063;-65
2022/08/31 08:47:24;;;;;;;0.88;0.63;;;;;;;-142.37;100.00;59669.53;4974243;28;20023;-63
2022/08/31 08:49:55;;;;;;;2.08;1.20;;;;;;;-142.37;100.00;59669.53;4974251;28;20463;-64
2022/08/31 08:52:34;;;;;;;1.95;0.57;;;;;;;-142.37;100.00;59669.53;4974381;28;20106;-65
2022/08/31 08:55:05;;;;;;;1.30;0.50;;;;;;;-142.37;100.00;59669.53;4956957;28;20039;-67
2022/08/31 08:57:33;;;;;;;1.02;0.80;;;;;;;-142.37;100.00;59669.53;4957070;28;20082;-63
2022/08/31 09:00:06;;;;;;;0.80;0.50;;;;;;;-142.37;100.00;59669.53;4972676;28;20035;-62
2022/08/31 09:02:41;;;;;;;0.68;0.50;;;;;;;-142.37;100.00;59669.53;4974379;28;20109;-63
2022/08/31 09:05:45;;;;;;;0.90;0.30;;;;;;;-142.37;100.00;59669.53;4973949;28;20115;-64
2022/08/31 09:08:43;;;;;;;0.43;0.20;;;;;;;-142.37;100.00;59669.53;4947283;28;20089;-63
2022/08/31 09:11:18;;;;;;;1.20;0.30;;;;;;;-142.37;100.00;59669.53;4973524;28;20041;-63
2022/08/31 09:14:41;;;;;;;0.45;0.45;;;;;;;-142.37;100.00;59669.53;4971976;28;20038;-64
2022/08/31 09:17:33;;;;;;;1.02;0.77;;;;;;;-142.37;100.00;59669.53;4922746;28;20049;-65
2022/08/31 09:20:02;;;;;;;2.20;0.80;;;;;;;-142.37;100.00;59669.53;4956010;28;20035;-64
2022/08/31 09:22:31;;;;;;;1.63;0.40;;;;;;;-142.37;100.00;59669.53;4973549;28;20165;-64
2022/08/31 09:24:58;;;;;;;0.95;0.70;;;;;;;-142.37;100.00;59669.53;4955039;28;20439;-66
2022/08/31 09:27:47;;;;;;;0.43;0.30;;;;;;;-142.37;100.00;59669.53;4956376;28;20082;-65
2022/08/31 09:30:35;;;;;;;0.70;0.32;;;;;;;-142.37;100.00;59669.53;4972225;28;20035;-65
2022/08/31 09:33:02;;;;;;;2.85;0.50;;;;;;;-142.37;100.00;59669.53;4954811;28;20031;-65
2022/08/31 09:35:40;;;;;;;1.98;0.80;;;;;;;-142.37;100.00;59669.53;4972786;28;20512;-64
2022/08/31 09:38:15;;;;;;;1.33;0.63;;;;;;;-142.37;100.00;59669.53;4955660;28;20352;-65
2022/08/31 09:40:46;;;;;;;0.82;0.40;;;;;;;-142.37;100.00;59669.53;4954924;28;20053;-65
2022/08/31 09:43:21;;;;;;;1.92;1.00;;;;;;;-142.37;100.00;59669.53;4955053;28;20041;-65
2022/08/31 09:46:08;;;;;;;0.40;0.40;;;;;;;-142.37;100.00;59669.53;4971289;28;20043;-64
2022/08/31 09:48:55;;;;;;;1.15;0.57;;;;;;;-142.37;100.00;59669.53;4955391;28;20026;-63
2022/08/31 09:51:36;;;;;;;1.20;0.40;;;;;;;-142.37;100.00;59669.53;4972431;28;20117;-65
2022/08/31 09:57:02;;;;;;;1.58;0.47;;;;;;;-142.37;100.00;59669.53;4972859;28;20093;-65
2022/08/31 09:59:46;;;;;;;2.03;0.40;;;;;;;-142.37;100.00;59669.53;4972783;28;20406;-65
2022/08/31 10:02:23;;;;;;;0.93;0.60;;;;;;;-142.37;100.00;59669.53;4970978;28;20035;-65
2022/08/31 10:04:54;;;;;;;2.58;1.45;;;;;;;-142.37;100.00;59669.53;4971410;28;20061;-65
2022/08/31 10:07:42;;;;;;;2.67;0.85;;;;;;;-142.37;100.00;59669.53;4972649;28;20027;-65
2022/08/31 10:10:16;;;;;;;0.38;0.38;;;;;;;-142.37;100.00;59669.53;4954767;28;20034;-65
2022/08/31 10:12:52;;;;;;;0.30;0.30;;;;;;;-142.37;100.00;59669.53;4972554;28;20381;-64
2022/08/31 10:15:38;;;;;;;0.50;0.50;;;;;;;-142.37;100.00;59669.53;4954933;28;20037;-65
2022/08/31 10:18:31;;;;;;;0.95;0.77;;;;;;;-142.37;100.00;59669.53;4955102;28;20475;-66
2022/08/31 10:21:07;;;;;;;1.15;0.70;;;;;;;-142.37;100.00;59669.53;4972201;28;20494;-66
2022/08/31 10:23:40;;;;;;;0.85;0.45;;;;;;;-142.37;100.00;59669.53;4972560;28;20432;-65
2022/08/31 10:26:25;;;;;;;1.98;0.43;;;;;;;-142.37;100.00;59669.53;4972230;28;20025;-66
2022/08/31 10:28:57;;;;;;;1.30;0.70;;;;;;;-142.37;100.00;59669.53;4972297;28;20051;-65
2022/08/31 10:31:44;;;;;;;0.70;0.70;;;;;;;-142.37;100.00;59669.53;4972532;28;20435;-66
2022/08/31 10:37:14;;;;;;;2.75;0.30;;;;;;;-142.37;100.00;59669.53;4972453;28;20038;-65
2022/08/31 10:40:16;;;;;;;2.03;0.30;;;;;;;-142.37;100.00;59669.53;4954986;28;20073;-65
2022/08/31 10:43:08;;;;;;;1.58;0.40;;;;;;;-142.37;100.00;59669.53;4943798;28;20046;-64
2022/08/31 10:45:38;;;;;;;0.70;0.35;;;;;;;-142.37;100.00;59669.53;4944579;28;20360;-65
2022/08/31 10:48:05;;;;;;;2.22;1.55;;;;;;;-142.37;100.00;59669.53;4953989;28;20412;-66
2022/08/31 10:50:55;;;;;;;0.80;0.40;;;;;;;-142.37;100.00;59669.53;4971529;28;20392;-66
2022/08/31 10:53:31;;;;;;;0.60;0.50;;;;;;;-142.37;100.00;59669.53;4971789;28;20114;-64
2022/08/31 10:56:13;;;;;;;1.52;0.80;;;;;;;-142.37;100.00;59669.53;4972227;28;20030;-64
2022/08/31 10:59:04;;;;;;;0.70;0.60;;;;;;;-142.37;100.00;59669.53;4971468;28;20627;-65
2022/08/31 11:01:51;;;;;;;2.15;0.70;;;;;;;-142.37;100.00;59669.53;4954611;28;20403;-65
2022/08/31 11:04:42;;;;;;;1.70;0.40;;;;;;;-142.37;100.00;59669.53;4955005;28;20031;-65
2022/08/31 11:07:13;;;;;;;0.45;0.40;;;;;;;-142.37;100.00;59669.53;4970257;28;20110;-65
2022/08/31 11:10:04;;;;;;;0.45;0.30;;;;;;;-142.37;100.00;59669.53;4972313;28;20503;-65
2022/08/31 11:12:41;;;;;;;0.77;0.45;;;;;;;-142.37;100.00;59669.53;4970757;28;20035;-65
2022/08/31 11:15:37;;;;;;;1.17;0.40;;;;;;;-142.37;100.00;59669.53;4971965;28;20035;-65
2022/08/31 11:18:42;;;;;;;3.58;1.33;;;;;;;-142.37;100.00;59669.53;4954433;28;20063;-65
2022/08/31 11:21:34;;;;;;;0.73;0.32;;;;;;;-142.37;100.00;59669.53;4971813;28;20490;-66
2022/08/31 11:24:30;;;;;;;3.63;0.70;;;;;;;-142.37;100.00;59669.53;4972524;28;20034;-65
2022/08/31 11:26:56;;;;;;;6.85;0.35;;;;;;;-142.37;100.00;59669.53;4954899;28;20503;-65
2022/08/31 11:29:35;;;;;;;3.08;0.50;;;;;;;-142.37;100.00;59669.53;4951614;29;20078;-65
2022/08/31 11:32:27;;;;;;;1.17;0.32;;;;;;;-142.37;100.00;59669.53;4935139;29;20031;-64
2022/08/31 11:34:57;;;;;;;2.58;0.50;;;;;;;-142.37;100.00;59669.53;4952363;29;20079;-64
2022/08/31 11:37:51;;;;;;;1.45;0.28;;;;;;;-142.37;100.00;59669.53;4952794;29;20129;-65
2022/08/31 11:40:40;;;;;;;0.60;0.40;;;;;;;-142.37;100.00;59669.53;4935298;29;20031;-65